Camden, New York
Current Conditions -  °F | °C
As of 6:53 PM on Thursday 18 Dec 2014 (Local Time) from KRME Reporting Station
Overcast Overcast  
Wind Chill: 21°   Ceiling: 1200
Heat Index: 30°   Visibility: 10mi
Dew Point: 28°   Wind: 10mph
Humidity: 92%   Direction: 280°W
Pressure: 30.02"   Gusts: NA
Location:  43.33°N, 75.75°W
Report Text: KRME 182353Z 28009KT 10SM OVC012 M01/M02 A3002 RMK AO2 SLP168 60000 I1000 I6000 T10111022 10000 21011 53006
Loading
Personal Weather Stations






























Interactive Weather Map New forecast layout! Learn more

10-Day Weather Forecast

Advertisements
Track Severe Weather on mobile